createdAt,value
2023-03-27T00:01:13.274Z,100318.50
2023-03-27T00:03:40.862Z,100313.41
2023-03-27T00:06:11.934Z,100316.81
2023-03-27T00:08:38.854Z,100329.78
2023-03-27T00:11:08.066Z,100319.44
2023-03-27T00:13:36.572Z,100315.06
2023-03-27T00:16:16.323Z,100310.72
2023-03-27T00:18:43.127Z,100308.16
2023-03-27T00:21:09.884Z,100310.78
2023-03-27T00:23:36.710Z,100310.03
2023-03-27T00:26:04.387Z,100313.47
2023-03-27T00:28:31.168Z,100309.97
2023-03-27T00:30:58.540Z,100310.75
2023-03-27T00:33:26.000Z,100308.19
2023-03-27T00:35:52.995Z,100303.06
2023-03-27T00:38:20.939Z,100303.06
2023-03-27T00:40:50.817Z,100297.06
2023-03-27T00:43:26.529Z,100297.13
2023-03-27T00:46:08.081Z,100300.50
2023-03-27T00:48:37.745Z,100303.03
2023-03-27T00:51:05.826Z,100297.00
2023-03-27T00:53:33.638Z,100291.72
2023-03-27T00:56:03.792Z,100284.00
2023-03-27T00:58:41.246Z,100286.78
2023-03-27T01:01:12.654Z,100286.75
2023-03-27T01:03:42.488Z,100284.25
2023-03-27T01:06:11.212Z,100280.63
2023-03-27T01:08:38.667Z,100281.56
2023-03-27T01:11:43.401Z,100276.53
2023-03-27T01:14:30.519Z,100269.78
2023-03-27T01:17:00.394Z,100276.69
2023-03-27T01:19:33.123Z,100268.19
2023-03-27T01:22:44.110Z,100264.03
2023-03-27T01:25:10.797Z,100258.09
2023-03-27T01:28:06.678Z,100243.63
2023-03-27T01:30:38.929Z,100250.47
2023-03-27T01:33:09.031Z,100246.13
2023-03-27T01:35:51.248Z,100243.44
2023-03-27T01:39:00.218Z,100246.91
2023-03-27T01:41:47.370Z,100244.94
2023-03-27T01:44:26.002Z,100240.69
2023-03-27T01:47:30.185Z,100237.31
2023-03-27T01:50:37.424Z,100233.13
2023-03-27T01:53:12.999Z,100234.00
2023-03-27T01:55:45.622Z,100235.75
2023-03-27T01:58:19.156Z,100240.06
2023-03-27T02:00:53.241Z,100229.88
2023-03-27T02:03:30.411Z,100232.50
2023-03-27T02:06:12.321Z,100229.16
2023-03-27T02:08:58.734Z,100218.09
2023-03-27T02:11:30.616Z,100213.88
2023-03-27T02:14:07.479Z,100227.56
2023-03-27T02:16:46.999Z,100228.47
2023-03-27T02:19:20.820Z,100226.78
2023-03-27T02:21:48.188Z,100219.97
2023-03-27T02:24:19.344Z,100226.00
2023-03-27T02:26:51.790Z,100219.09
2023-03-27T02:29:43.937Z,100228.59
2023-03-27T02:32:17.445Z,100227.72
2023-03-27T02:35:01.460Z,100224.34
2023-03-27T02:37:49.853Z,100226.03
2023-03-27T02:40:41.309Z,100228.63
2023-03-27T02:43:48.989Z,100235.50
2023-03-27T02:46:31.551Z,100228.66
2023-03-27T02:49:04.608Z,100219.25
2023-03-27T02:51:38.104Z,100220.09
2023-03-27T02:54:27.680Z,100215.81
2023-03-27T02:57:03.505Z,100224.34
2023-03-27T02:59:52.884Z,100228.59
2023-03-27T03:02:26.705Z,100224.28
2023-03-27T03:05:06.227Z,100222.56
2023-03-27T03:07:40.233Z,100219.13
2023-03-27T03:10:09.791Z,100220.84
2023-03-27T03:12:36.884Z,100228.44
2023-03-27T03:15:04.219Z,100217.28
2023-03-27T03:17:31.594Z,100220.72
2023-03-27T03:19:58.287Z,100217.28
2023-03-27T03:22:26.380Z,100219.78
2023-03-27T03:24:53.566Z,100228.22
2023-03-27T03:27:25.824Z,100228.25
2023-03-27T03:30:01.520Z,100228.22
2023-03-27T03:32:30.975Z,100230.81
2023-03-27T03:34:58.000Z,100236.78
2023-03-27T03:37:28.669Z,100237.56
2023-03-27T03:39:57.309Z,100244.34
2023-03-27T03:42:24.559Z,100235.75
2023-03-27T03:44:54.109Z,100246.84
2023-03-27T03:47:22.503Z,100239.88
2023-03-27T03:49:50.435Z,100241.38
2023-03-27T03:52:17.610Z,100239.56
2023-03-27T03:54:46.564Z,100249.81
2023-03-27T03:57:13.881Z,100250.72
2023-03-27T03:59:41.360Z,100257.34
2023-03-27T04:02:43.663Z,100258.81
2023-03-27T04:05:13.396Z,100268.97
2023-03-27T04:07:41.239Z,100269.78
2023-03-27T04:10:27.845Z,100272.38
2023-03-27T04:12:55.545Z,100281.84
2023-03-27T04:15:27.455Z,100282.66
2023-03-27T04:18:06.199Z,100282.66
2023-03-27T04:20:34.754Z,100283.31
2023-03-27T04:23:05.950Z,100283.91
2023-03-27T04:25:36.639Z,100296.59
2023-03-27T04:28:03.688Z,100295.78
2023-03-27T04:30:34.852Z,100294.84
2023-03-27T04:33:20.325Z,100295.59
2023-03-27T04:36:10.660Z,100296.44
2023-03-27T04:39:13.061Z,100302.56
2023-03-27T04:41:39.981Z,100311.81
2023-03-27T04:44:07.424Z,100316.66
2023-03-27T04:46:38.916Z,100325.06
2023-03-27T04:49:09.513Z,100326.72
2023-03-27T04:51:49.392Z,100314.75
2023-03-27T04:54:17.924Z,100315.66
2023-03-27T04:56:46.700Z,100320.13
2023-03-27T04:59:15.564Z,100322.75
2023-03-27T05:01:43.443Z,100323.34
2023-03-27T05:04:10.302Z,100339.41
2023-03-27T05:07:00.362Z,100333.50
2023-03-27T05:09:27.396Z,100329.97
2023-03-27T05:11:54.134Z,100342.13
2023-03-27T05:14:23.048Z,100343.09
2023-03-27T05:16:52.399Z,100351.59
2023-03-27T05:19:21.055Z,100360.91
2023-03-27T05:21:56.540Z,100359.19
2023-03-27T05:24:23.461Z,100367.59
2023-03-27T05:26:50.289Z,100367.41
2023-03-27T05:29:17.195Z,100368.16
2023-03-27T05:31:46.374Z,100372.34
2023-03-27T05:34:46.121Z,100375.63
2023-03-27T05:37:16.586Z,100376.50
2023-03-27T05:40:17.497Z,100374.69
2023-03-27T05:42:47.526Z,100381.44
2023-03-27T05:45:15.521Z,100380.53
2023-03-27T05:47:46.409Z,100387.38
2023-03-27T05:50:14.657Z,100383.38
2023-03-27T05:52:42.214Z,100391.16
2023-03-27T05:55:10.498Z,100397.13
2023-03-27T05:57:40.646Z,100390.38
2023-03-27T06:00:14.053Z,100392.00
2023-03-27T06:02:43.835Z,100395.34
2023-03-27T06:05:14.352Z,100398.81
2023-03-27T06:07:47.709Z,100392.13
2023-03-27T06:10:20.362Z,100393.88
2023-03-27T06:13:06.569Z,100396.63
2023-03-27T06:15:42.764Z,100400.81
2023-03-27T06:18:22.203Z,100404.28
2023-03-27T06:20:49.029Z,100410.25
2023-03-27T06:23:15.973Z,100410.34
2023-03-27T06:25:44.213Z,100414.72
2023-03-27T06:28:13.353Z,100425.94
2023-03-27T06:30:45.111Z,100433.72
2023-03-27T06:33:27.496Z,100437.94
2023-03-27T06:36:00.838Z,100437.94
2023-03-27T06:38:33.468Z,100434.75
2023-03-27T06:41:04.810Z,100436.59
2023-03-27T06:43:49.902Z,100431.75
2023-03-27T06:46:42.695Z,100444.69
2023-03-27T06:49:37.593Z,100433.81
2023-03-27T06:52:17.736Z,100447.50
2023-03-27T06:54:46.252Z,100452.75
2023-03-27T06:57:13.701Z,100458.81
2023-03-27T06:59:48.945Z,100459.69
2023-03-27T07:02:20.761Z,100452.97
2023-03-27T07:04:57.715Z,100454.81
2023-03-27T07:07:36.187Z,100443.88
2023-03-27T07:10:03.669Z,100441.50
2023-03-27T07:12:31.040Z,100450.13
2023-03-27T07:14:57.998Z,100447.75
2023-03-27T07:17:34.880Z,100440.06
2023-03-27T07:20:14.005Z,100446.19
2023-03-27T07:22:43.013Z,100442.75
2023-03-27T07:25:20.028Z,100448.81
2023-03-27T07:27:47.376Z,100452.41
2023-03-27T07:30:14.388Z,100456.75
2023-03-27T07:32:44.670Z,100470.44
2023-03-27T07:35:12.814Z,100468.72
2023-03-27T07:38:03.279Z,100479.16
2023-03-27T07:40:40.076Z,100478.47
2023-03-27T07:43:45.868Z,100468.28
2023-03-27T07:46:12.960Z,100474.59
2023-03-27T07:48:40.034Z,100473.06
2023-03-27T07:51:14.362Z,100476.59
2023-03-27T07:53:43.701Z,100486.06
2023-03-27T07:56:23.585Z,100483.50
2023-03-27T07:59:06.918Z,100488.66
2023-03-27T08:01:34.288Z,100478.59
2023-03-27T08:04:01.758Z,100475.22
2023-03-27T08:06:29.293Z,100477.09
2023-03-27T08:08:57.176Z,100488.34
2023-03-27T08:11:30.681Z,100490.09
2023-03-27T08:13:59.059Z,100499.50
2023-03-27T08:16:29.645Z,100502.19
2023-03-27T08:18:58.694Z,100507.34
2023-03-27T08:21:26.596Z,100503.97
2023-03-27T08:23:57.756Z,100511.69
2023-03-27T08:26:33.927Z,100510.88
2023-03-27T08:29:09.000Z,100511.75
2023-03-27T08:31:37.085Z,100519.50
2023-03-27T08:34:05.341Z,100522.00
2023-03-27T08:36:58.426Z,100528.84
2023-03-27T08:39:34.874Z,100531.41
2023-03-27T08:42:08.404Z,100528.84
2023-03-27T08:44:38.619Z,100523.72
2023-03-27T08:47:33.255Z,100533.19
2023-03-27T08:50:22.032Z,100533.22
2023-03-27T08:52:52.885Z,100528.97
2023-03-27T08:55:38.528Z,100537.56
2023-03-27T08:58:21.630Z,100546.16
2023-03-27T09:01:22.304Z,100541.03
2023-03-27T09:04:28.443Z,100553.91
2023-03-27T09:07:15.378Z,100558.22
2023-03-27T09:10:22.368Z,100562.50
2023-03-27T09:12:56.880Z,100570.22
2023-03-27T09:15:28.470Z,100576.28
2023-03-27T09:18:02.969Z,100578.00
2023-03-27T09:21:07.918Z,100575.41
2023-03-27T09:23:46.503Z,100584.91
2023-03-27T09:26:47.624Z,100577.97
2023-03-27T09:29:39.464Z,100582.28
2023-03-27T09:32:26.690Z,100572.00
2023-03-27T09:35:03.770Z,100572.81
2023-03-27T09:37:31.518Z,100579.72
2023-03-27T09:40:00.424Z,100567.66
2023-03-27T09:42:41.281Z,100572.81
2023-03-27T09:45:12.637Z,100569.34
2023-03-27T09:48:04.197Z,100574.50
2023-03-27T09:50:47.480Z,100576.22
2023-03-27T09:53:28.033Z,100576.19
2023-03-27T09:56:12.843Z,100568.44
2023-03-27T09:58:46.259Z,100582.19
2023-03-27T10:01:16.159Z,100584.75
2023-03-27T10:03:51.898Z,100575.25
2023-03-27T10:06:38.786Z,100566.63
2023-03-27T10:09:27.666Z,100567.50
2023-03-27T10:12:06.096Z,100583.00
2023-03-27T10:14:39.262Z,100584.69
2023-03-27T10:17:13.034Z,100578.66
2023-03-27T10:19:42.155Z,100576.91
2023-03-27T10:22:31.100Z,100588.06
2023-03-27T10:25:04.898Z,100583.69
2023-03-27T10:27:53.009Z,100584.56
2023-03-27T10:30:38.140Z,100585.38
2023-03-27T10:33:41.376Z,100597.44
2023-03-27T10:36:20.378Z,100588.72
2023-03-27T10:38:54.939Z,100587.78
2023-03-27T10:41:48.644Z,100595.44
2023-03-27T10:44:19.245Z,100591.13
2023-03-27T10:46:53.612Z,100603.94
2023-03-27T10:49:42.760Z,100614.34
2023-03-27T10:52:23.324Z,100620.41
2023-03-27T10:55:44.991Z,100625.50
2023-03-27T10:58:52.140Z,100637.53
2023-03-27T11:01:31.379Z,100622.03
2023-03-27T11:04:09.145Z,100633.16
2023-03-27T11:06:48.839Z,100626.09
2023-03-27T11:09:34.387Z,100625.94
2023-03-27T11:12:16.850Z,100628.47
2023-03-27T11:15:13.614Z,100639.56
2023-03-27T11:17:48.175Z,100621.41
2023-03-27T11:20:31.454Z,100629.06
2023-03-27T11:23:17.341Z,100628.34
2023-03-27T11:26:06.098Z,100638.97
2023-03-27T11:28:41.258Z,100652.00
2023-03-27T11:31:34.613Z,100652.03
2023-03-27T11:34:07.425Z,100640.81
2023-03-27T11:36:41.883Z,100621.66
2023-03-27T11:39:36.574Z,100643.97
2023-03-27T11:42:17.895Z,100655.19
2023-03-27T11:44:47.989Z,100648.19
2023-03-27T11:48:10.208Z,100642.91
2023-03-27T11:50:50.521Z,100645.34
2023-03-27T11:53:45.406Z,100637.63
2023-03-27T11:56:24.836Z,100640.81
2023-03-27T11:59:23.114Z,100660.06
2023-03-27T12:02:02.860Z,100629.69
2023-03-27T12:04:59.710Z,100653.81
2023-03-27T12:07:48.167Z,100650.41
2023-03-27T12:10:30.240Z,100632.25
2023-03-27T12:13:40.735Z,100627.03
2023-03-27T12:16:22.556Z,100613.03
2023-03-27T12:20:01.971Z,100618.16
2023-03-27T12:22:39.122Z,100622.50
2023-03-27T12:25:33.634Z,100613.09
2023-03-27T12:28:53.018Z,100624.41
2023-03-27T12:31:53.108Z,100614.94
2023-03-27T12:34:41.621Z,100620.00
2023-03-27T12:37:13.707Z,100624.31
2023-03-27T12:39:54.196Z,100642.47
2023-03-27T12:42:43.947Z,100628.72
2023-03-27T12:45:22.616Z,100620.00
2023-03-27T12:48:10.765Z,100638.06
2023-03-27T12:50:53.757Z,100629.53
2023-03-27T12:53:29.750Z,100633.03
2023-03-27T12:56:19.539Z,100635.59
2023-03-27T12:58:52.937Z,100639.03
2023-03-27T13:02:07.023Z,100650.31
2023-03-27T13:04:49.927Z,100636.47
2023-03-27T13:07:24.796Z,100634.78
2023-03-27T13:10:29.949Z,100633.81
2023-03-27T13:13:18.524Z,100639.84
2023-03-27T13:15:57.779Z,100643.28
2023-03-27T13:18:55.608Z,100641.53
2023-03-27T13:22:04.070Z,100647.53
2023-03-27T13:24:38.599Z,100641.50
2023-03-27T13:27:24.403Z,100626.13
2023-03-27T13:29:52.796Z,100644.25
2023-03-27T13:32:33.732Z,100641.66
2023-03-27T13:35:19.260Z,100646.84
2023-03-27T13:37:54.410Z,100657.28
2023-03-27T13:40:41.366Z,100642.72
2023-03-27T13:43:33.809Z,100650.34
2023-03-27T13:46:16.329Z,100625.38
2023-03-27T13:48:48.695Z,100639.09
2023-03-27T13:51:28.378Z,100633.84
2023-03-27T13:54:23.389Z,100639.88
2023-03-27T13:57:09.270Z,100634.72
2023-03-27T13:59:54.126Z,100627.75
2023-03-27T14:02:48.444Z,100630.34
2023-03-27T14:06:00.023Z,100632.25
2023-03-27T14:08:57.237Z,100618.44
2023-03-27T14:11:50.778Z,100627.84
2023-03-27T14:14:52.746Z,100654.53
2023-03-27T14:17:31.709Z,100645.16
2023-03-27T14:20:19.243Z,100635.66
2023-03-27T14:23:03.695Z,100640.03
2023-03-27T14:25:53.912Z,100649.47
2023-03-27T14:28:51.772Z,100637.28
2023-03-27T14:31:35.431Z,100665.09
2023-03-27T14:34:15.977Z,100650.44
2023-03-27T14:36:47.593Z,100650.50
2023-03-27T14:39:27.860Z,100645.38
2023-03-27T14:42:02.908Z,100638.47
2023-03-27T14:44:33.403Z,100660.97
2023-03-27T14:47:12.054Z,100669.63
2023-03-27T14:49:49.136Z,100654.09
2023-03-27T14:52:36.179Z,100658.41
2023-03-27T14:55:24.274Z,100654.03
2023-03-27T14:58:11.911Z,100657.50
2023-03-27T15:00:41.670Z,100651.47
2023-03-27T15:03:22.048Z,100638.50
2023-03-27T15:06:05.807Z,100654.91
2023-03-27T15:08:46.806Z,100669.59
2023-03-27T15:11:41.113Z,100660.16
2023-03-27T15:14:20.767Z,100663.63
2023-03-27T15:17:15.776Z,100665.31
2023-03-27T15:19:49.614Z,100663.66
2023-03-27T15:22:29.865Z,100675.75
2023-03-27T15:25:09.365Z,100680.09
2023-03-27T15:27:49.531Z,100682.66
2023-03-27T15:30:43.797Z,100680.97
2023-03-27T15:33:20.408Z,100680.13
2023-03-27T15:35:53.283Z,100683.63
2023-03-27T15:38:28.860Z,100688.81
2023-03-27T15:41:17.277Z,100701.72
2023-03-27T15:43:44.354Z,100692.28
2023-03-27T15:46:19.940Z,100691.41
2023-03-27T15:48:55.457Z,100700.03
2023-03-27T15:51:25.278Z,100717.28
2023-03-27T15:53:55.805Z,100710.38
2023-03-27T15:56:27.367Z,100709.53
2023-03-27T15:59:10.679Z,100717.25
2023-03-27T16:01:54.464Z,100724.16
2023-03-27T16:04:25.813Z,100725.97
2023-03-27T16:07:03.562Z,100727.72
2023-03-27T16:09:34.379Z,100726.06
2023-03-27T16:12:01.345Z,100732.13
2023-03-27T16:14:43.844Z,100732.16
2023-03-27T16:17:20.627Z,100737.31
2023-03-27T16:19:56.439Z,100739.94
2023-03-27T16:22:24.736Z,100760.66
2023-03-27T16:24:52.494Z,100749.47
2023-03-27T16:27:23.122Z,100765.88
2023-03-27T16:29:51.599Z,100761.56
2023-03-27T16:32:20.541Z,100776.28
2023-03-27T16:34:53.454Z,100765.94
2023-03-27T16:37:24.004Z,100770.25
2023-03-27T16:39:51.169Z,100766.81
2023-03-27T16:42:21.737Z,100767.72
2023-03-27T16:44:50.833Z,100772.94
2023-03-27T16:47:18.210Z,100788.47
2023-03-27T16:49:49.178Z,100778.16
2023-03-27T16:52:20.498Z,100791.94
2023-03-27T16:54:47.584Z,100792.78
2023-03-27T16:57:14.581Z,100801.47
2023-03-27T16:59:41.415Z,100798.00
2023-03-27T17:02:10.966Z,100810.13
2023-03-27T17:04:37.895Z,100816.16
2023-03-27T17:07:05.537Z,100811.00
2023-03-27T17:09:33.116Z,100823.09
2023-03-27T17:11:59.956Z,100828.28
2023-03-27T17:14:27.410Z,100836.03
2023-03-27T17:16:54.302Z,100837.78
2023-03-27T17:19:21.457Z,100850.72
2023-03-27T17:21:48.189Z,100848.97
2023-03-27T17:24:15.201Z,100856.75
2023-03-27T17:26:42.022Z,100865.34
2023-03-27T17:29:10.536Z,100874.84
2023-03-27T17:31:38.734Z,100876.56
2023-03-27T17:34:07.027Z,100883.44
2023-03-27T17:36:42.767Z,100880.84
2023-03-27T17:39:14.267Z,100880.00
2023-03-27T17:41:41.066Z,100893.78
2023-03-27T17:44:14.447Z,100884.28
2023-03-27T17:46:41.759Z,100904.94
2023-03-27T17:49:08.520Z,100903.25
2023-03-27T17:51:37.761Z,100908.41
2023-03-27T17:54:04.696Z,100917.88
2023-03-27T17:56:32.084Z,100899.78
2023-03-27T17:59:00.203Z,100915.25
2023-03-27T18:01:27.202Z,100923.88
2023-03-27T18:03:55.307Z,100927.31
2023-03-27T18:06:24.274Z,100927.28
2023-03-27T18:08:51.131Z,100927.31
2023-03-27T18:11:18.198Z,100947.09
2023-03-27T18:13:45.196Z,100941.03
2023-03-27T18:16:12.264Z,100954.81
2023-03-27T18:18:39.779Z,100962.56
2023-03-27T18:21:08.313Z,100965.97
2023-03-27T18:23:35.484Z,100978.81
2023-03-27T18:26:07.013Z,100985.69
2023-03-27T18:28:34.561Z,100988.28
2023-03-27T18:31:03.643Z,101009.78
2023-03-27T18:33:30.743Z,100992.59
2023-03-27T18:35:57.886Z,100998.56
2023-03-27T18:38:25.998Z,101006.28
2023-03-27T18:40:55.632Z,101012.22
2023-03-27T18:43:23.550Z,101013.03
2023-03-27T18:46:01.408Z,101019.91
2023-03-27T18:48:31.069Z,101026.78
2023-03-27T18:51:02.709Z,101037.06
2023-03-27T18:53:30.972Z,101039.63
2023-03-27T18:55:59.120Z,101042.13
2023-03-27T18:58:28.261Z,101049.94
2023-03-27T19:00:56.990Z,101064.50
2023-03-27T19:03:26.455Z,101065.34
2023-03-27T19:05:53.501Z,101069.59
2023-03-27T19:08:21.821Z,101067.03
2023-03-27T19:10:49.412Z,101079.00
2023-03-27T19:13:42.153Z,101084.13
2023-03-27T19:16:29.462Z,101092.69
2023-03-27T19:19:34.381Z,101102.03
2023-03-27T19:22:19.686Z,101102.91
2023-03-27T19:24:52.140Z,101106.25
2023-03-27T19:27:23.664Z,101125.09
2023-03-27T19:29:54.939Z,101123.41
2023-03-27T19:32:23.418Z,101131.91
2023-03-27T19:34:50.419Z,101137.03
2023-03-27T19:37:17.289Z,101137.94
2023-03-27T19:39:44.323Z,101139.56
2023-03-27T19:42:11.712Z,101149.00
2023-03-27T19:44:38.801Z,101146.56
2023-03-27T19:47:07.859Z,101155.13
2023-03-27T19:49:34.728Z,101150.72
2023-03-27T19:52:20.240Z,101142.13
2023-03-27T19:54:47.471Z,101151.47
2023-03-27T19:57:17.236Z,101164.38
2023-03-27T19:59:44.259Z,101164.31
2023-03-27T20:02:14.853Z,101166.03
2023-03-27T20:04:41.853Z,101159.97
2023-03-27T20:07:12.291Z,101179.69
2023-03-27T20:09:39.410Z,101179.72
2023-03-27T20:12:07.207Z,101182.34
2023-03-27T20:14:34.232Z,101181.44
2023-03-27T20:17:01.024Z,101193.47
2023-03-27T20:19:30.749Z,101186.63
2023-03-27T20:22:00.343Z,101196.03
2023-03-27T20:24:29.086Z,101205.38
2023-03-27T20:26:59.182Z,101199.25
2023-03-27T20:29:26.459Z,101205.28
2023-03-27T20:31:53.438Z,101208.75
2023-03-27T20:34:22.531Z,101220.78
2023-03-27T20:36:53.210Z,101222.56
2023-03-27T20:39:49.855Z,101224.22
2023-03-27T20:42:23.268Z,101239.69
2023-03-27T20:44:58.641Z,101237.78
2023-03-27T20:47:39.054Z,101248.00
2023-03-27T20:50:06.917Z,101245.41
2023-03-27T20:52:33.918Z,101258.22
2023-03-27T20:55:01.857Z,101259.06
2023-03-27T20:57:29.640Z,101265.94
2023-03-27T20:59:56.595Z,101279.56
2023-03-27T21:02:23.769Z,101262.50
2023-03-27T21:04:50.652Z,101268.38
2023-03-27T21:07:17.476Z,101274.38
2023-03-27T21:09:46.111Z,101278.56
2023-03-27T21:12:13.096Z,101281.91
2023-03-27T21:14:39.959Z,101287.03
2023-03-27T21:17:07.001Z,101304.09
2023-03-27T21:19:33.866Z,101306.69
2023-03-27T21:22:00.875Z,101301.59
2023-03-27T21:24:28.025Z,101305.81
2023-03-27T21:26:54.933Z,101319.53
2023-03-27T21:29:21.857Z,101322.00
2023-03-27T21:31:48.709Z,101323.66
2023-03-27T21:34:15.540Z,101333.06
2023-03-27T21:36:42.267Z,101339.00
2023-03-27T21:39:10.002Z,101344.25
2023-03-27T21:41:36.872Z,101350.78
2023-03-27T21:44:03.846Z,101357.59
2023-03-27T21:46:30.890Z,101371.25
2023-03-27T21:48:57.735Z,101371.06
2023-03-27T21:51:24.541Z,101371.06
2023-03-27T21:53:51.640Z,101367.56
2023-03-27T21:56:18.383Z,101369.09
2023-03-27T21:58:45.363Z,101354.25
2023-03-27T22:01:12.260Z,101373.09
2023-03-27T22:03:39.109Z,101373.03
2023-03-27T22:06:12.398Z,101360.00
2023-03-27T22:08:41.585Z,101361.69
2023-03-27T22:11:09.776Z,101370.19
2023-03-27T22:13:38.086Z,101361.00
2023-03-27T22:16:10.959Z,101362.56
2023-03-27T22:18:38.299Z,101367.41
2023-03-27T22:21:25.635Z,101361.78
2023-03-27T22:23:54.032Z,101388.41
2023-03-27T22:26:24.309Z,101393.88
2023-03-27T22:28:52.659Z,101388.63
2023-03-27T22:31:21.198Z,101399.97
2023-03-27T22:33:48.523Z,101395.00
2023-03-27T22:36:15.800Z,101399.28
2023-03-27T22:38:42.800Z,101403.59
2023-03-27T22:41:11.515Z,101419.00
2023-03-27T22:43:39.140Z,101416.50
2023-03-27T22:46:08.100Z,101418.09
2023-03-27T22:48:34.933Z,101429.91
2023-03-27T22:51:01.855Z,101429.03
2023-03-27T22:53:29.560Z,101427.41
2023-03-27T22:55:57.179Z,101434.19
2023-03-27T22:58:25.220Z,101438.28
2023-03-27T23:00:53.338Z,101430.22
2023-03-27T23:03:21.309Z,101436.22
2023-03-27T23:05:49.728Z,101450.06
2023-03-27T23:08:18.817Z,101455.03
2023-03-27T23:10:46.162Z,101453.97
2023-03-27T23:13:13.262Z,101459.06
2023-03-27T23:15:40.026Z,101471.69
2023-03-27T23:18:06.867Z,101466.44
2023-03-27T23:20:33.662Z,101472.44
2023-03-27T23:23:00.458Z,101462.97
2023-03-27T23:25:27.213Z,101464.03
2023-03-27T23:27:53.975Z,101472.69
2023-03-27T23:30:20.814Z,101473.59
2023-03-27T23:32:47.493Z,101483.88
2023-03-27T23:35:14.340Z,101489.00
2023-03-27T23:37:41.079Z,101495.81
2023-03-27T23:40:08.691Z,101509.59
2023-03-27T23:42:35.447Z,101518.28
2023-03-27T23:45:02.253Z,101524.22
2023-03-27T23:47:28.972Z,101536.41
2023-03-27T23:49:55.770Z,101543.97
2023-03-27T23:52:22.491Z,101557.63
2023-03-27T23:54:49.279Z,101556.75
2023-03-27T23:57:16.041Z,101567.09
2023-03-27T23:59:42.759Z,101568.75
